2022年5月17日 17:002022年5月18日 02:00有效
时间
星期二
17:00
星期二
18:00
星期二
19:00
星期二
20:00
星期二
21:00
星期二
22:00
星期二
23:00
星期三
00:00
星期三
01:00
代码
VFR
VFR
VFR
VFR
VFR
VFR
VFR
VFR
VFR
天气
天空晴朗
天空晴朗
天空晴朗
天空晴朗
天空晴朗
天空晴朗
天空晴朗
天空晴朗
天空晴朗
能见度
10 km+
10 km+
10 km+
10 km+
10 km+
10 km+
10 km+
10 km+
10 km+
天花板
-
-
-
-
-
-
-
-
-
290°
290°
290°
290°
290°
290°
Var
Var
Var
Var
Var
Var
Var
Var
Var
Var
Var
Var
速度
7 kt
7 kt
7 kt
7 kt
7 kt
3 kt
3 kt
3 kt
3 kt
阵风
温度/星期日
21:10

原版的

TAF LFCK 171400Z 1715/1724 15005KT CAVOK
BECMG 1715/1717 29007KT
BECMG 1718/1720 VRB03KT

TAF Albi-Le Séquestre Airport

Albi-Le Séquestre Airport是Albi/Le Séquestre,法国中的中型机场。 该机场有一条跑道: 9/27.

这份报告是针对2022年5月17日 16:00, 当地时间在Castres-Mazamet Airport进行的。 从2022年5月17日 17:00到2022年5月18日 02:00, 当地时间有效.

预报

  • 从星期二 17:00到星期三 02:00

    • 风: 风来自150°方向,速度为5 kt。
    • CAVOK: 天气为CAVOK。这意味着在5.000 ft或MSA(最低安全高度)以下(以较高者为准)以下没有云。这也意味着没有观测到积雨云或高耸的积云,可见度为10 km 或者更多或更高。此外,不会有雾,降雨或其他重要天气。

  • 介于星期二 17:00和19:00之间

    • 风: 风来自290°方向,速度为7 kt。

  • 介于星期二 20:00和22:00之间

    • 风: 可变方向的风很小或没有。

白天

今天,太阳从06:23升起,在21:12降落。 这适用于Albi-Le Séquestre Airport,世界夏令时可能有所不同。 当地时间与世界标准时间之间的时差为+2 小时。 夏令时目前正在进行中。

下载我们的应用程序

在您的手机和平板电脑上轻松访问所有航空天气。
有许多网站上没有的功能,如离线支持和个人机场列表。

Studio Eveline

Benalmádena
España